createdAt,value
2019-03-06T00:02:02.594Z,8.90
2019-03-06T00:04:34.723Z,8.84
2019-03-06T00:07:08.565Z,8.84
2019-03-06T00:09:40.298Z,8.80
2019-03-06T00:12:11.873Z,8.89
2019-03-06T00:14:48.529Z,8.90
2019-03-06T00:17:19.715Z,9.07
2019-03-06T00:19:51.482Z,9.07
2019-03-06T00:22:23.175Z,9.18
2019-03-06T00:24:54.949Z,9.17
2019-03-06T00:27:26.784Z,9.23
2019-03-06T00:29:58.665Z,9.15
2019-03-06T00:32:30.454Z,9.15
2019-03-06T00:35:05.026Z,9.15
2019-03-06T00:37:36.745Z,9.14
2019-03-06T00:40:15.927Z,9.14
2019-03-06T00:42:49.796Z,9.10
2019-03-06T00:45:21.499Z,9.15
2019-03-06T00:47:53.084Z,9.14
2019-03-06T00:50:24.704Z,9.17
2019-03-06T00:52:56.321Z,9.21
2019-03-06T00:55:27.906Z,9.17
2019-03-06T00:57:59.655Z,9.18
2019-03-06T01:00:31.298Z,9.17
2019-03-06T01:03:03.124Z,9.18
2019-03-06T01:05:34.805Z,9.15
2019-03-06T01:08:06.605Z,9.11
2019-03-06T01:10:38.346Z,9.01
2019-03-06T01:13:10.005Z,8.95
2019-03-06T01:15:41.663Z,8.90
2019-03-06T01:18:13.404Z,8.86
2019-03-06T01:20:45.138Z,8.74
2019-03-06T01:23:19.599Z,8.69
2019-03-06T01:25:51.239Z,8.70
2019-03-06T01:28:22.873Z,8.71
2019-03-06T01:30:54.559Z,8.65
2019-03-06T01:33:47.797Z,8.64
2019-03-06T01:36:38.564Z,8.62
2019-03-06T01:39:19.475Z,8.62
2019-03-06T01:42:01.795Z,8.59
2019-03-06T01:44:38.214Z,8.66
2019-03-06T01:47:10.051Z,8.72
2019-03-06T01:49:41.613Z,8.65
2019-03-06T01:52:14.465Z,8.66
2019-03-06T01:54:46.256Z,8.47
2019-03-06T01:57:18.136Z,8.49
2019-03-06T01:59:49.822Z,8.42
2019-03-06T02:02:22.043Z,8.43
2019-03-06T02:04:53.725Z,8.49
2019-03-06T02:07:25.485Z,8.39
2019-03-06T02:09:57.012Z,8.40
2019-03-06T02:12:28.855Z,8.45
2019-03-06T02:15:00.505Z,8.46
2019-03-06T02:17:33.045Z,8.44
2019-03-06T02:20:05.422Z,8.50
2019-03-06T02:22:37.146Z,8.46
2019-03-06T02:25:09.175Z,8.43
2019-03-06T02:27:41.066Z,8.42
2019-03-06T02:30:15.765Z,8.37
2019-03-06T02:32:47.580Z,8.33
2019-03-06T02:35:19.456Z,8.26
2019-03-06T02:37:51.216Z,8.21
2019-03-06T02:40:22.882Z,8.13
2019-03-06T02:42:54.622Z,8.18
2019-03-06T02:45:26.305Z,8.15
2019-03-06T02:47:58.062Z,8.15
2019-03-06T02:50:32.093Z,8.12
2019-03-06T02:53:03.792Z,8.21
2019-03-06T02:55:38.791Z,8.25
2019-03-06T02:58:19.940Z,8.19
2019-03-06T03:01:10.079Z,8.21
2019-03-06T03:04:00.455Z,8.28
2019-03-06T03:06:36.318Z,8.36
2019-03-06T03:09:20.934Z,8.41
2019-03-06T03:11:52.766Z,8.30
2019-03-06T03:14:24.575Z,8.38
2019-03-06T03:16:57.462Z,8.33
2019-03-06T03:19:29.270Z,8.34
2019-03-06T03:22:01.009Z,8.34
2019-03-06T03:24:32.827Z,8.26
2019-03-06T03:27:04.626Z,8.26
2019-03-06T03:29:36.516Z,8.19
2019-03-06T03:32:08.167Z,8.25
2019-03-06T03:34:39.786Z,8.27
2019-03-06T03:37:12.536Z,8.21
2019-03-06T03:39:44.213Z,8.19
2019-03-06T03:42:18.686Z,8.18
2019-03-06T03:44:50.387Z,8.13
2019-03-06T03:47:22.204Z,8.21
2019-03-06T03:49:53.903Z,8.21
2019-03-06T03:52:25.603Z,8.24
2019-03-06T03:54:57.307Z,8.26
2019-03-06T03:57:29.244Z,8.25
2019-03-06T04:00:01.175Z,8.28
2019-03-06T04:02:33.135Z,8.22
2019-03-06T04:05:06.470Z,8.20
2019-03-06T04:07:38.171Z,8.22
2019-03-06T04:10:10.803Z,8.22
2019-03-06T04:12:42.773Z,8.19
2019-03-06T04:15:14.716Z,8.17
2019-03-06T04:17:46.425Z,8.15
2019-03-06T04:20:19.785Z,8.18
2019-03-06T04:22:51.517Z,8.18
2019-03-06T04:25:24.956Z,8.15
2019-03-06T04:27:56.613Z,8.12
2019-03-06T04:30:29.535Z,8.18
2019-03-06T04:33:01.452Z,8.14
2019-03-06T04:35:33.353Z,8.17
2019-03-06T04:38:05.132Z,8.20
2019-03-06T04:40:36.764Z,8.29
2019-03-06T04:43:08.385Z,8.23
2019-03-06T04:45:40.114Z,8.23
2019-03-06T04:48:11.673Z,8.26
2019-03-06T04:50:43.371Z,8.24
2019-03-06T04:53:14.955Z,8.24
2019-03-06T04:55:46.691Z,8.19
2019-03-06T04:58:18.340Z,8.18
2019-03-06T05:00:50.513Z,8.20
2019-03-06T05:03:24.509Z,8.14
2019-03-06T05:05:56.161Z,8.14
2019-03-06T05:08:27.761Z,8.16
2019-03-06T05:10:59.532Z,8.10
2019-03-06T05:13:31.143Z,8.07
2019-03-06T05:16:02.713Z,8.09
2019-03-06T05:18:59.281Z,8.10
2019-03-06T05:21:31.181Z,8.03
2019-03-06T05:24:02.781Z,8.06
2019-03-06T05:26:34.499Z,8.08
2019-03-06T05:29:06.202Z,8.08
2019-03-06T05:31:37.871Z,8.08
2019-03-06T05:34:09.759Z,8.07
2019-03-06T05:36:50.054Z,8.11
2019-03-06T05:39:21.771Z,8.05
2019-03-06T05:41:53.504Z,8.09
2019-03-06T05:44:25.127Z,8.09
2019-03-06T05:46:58.345Z,8.08
2019-03-06T05:49:30.169Z,8.14
2019-03-06T05:52:01.861Z,8.12
2019-03-06T05:54:33.577Z,8.18
2019-03-06T05:57:05.529Z,8.23
2019-03-06T05:59:37.221Z,8.27
2019-03-06T06:02:08.929Z,8.33
2019-03-06T06:04:40.600Z,8.35
2019-03-06T06:07:12.521Z,8.33
2019-03-06T06:09:44.289Z,8.36
2019-03-06T06:12:15.879Z,8.39
2019-03-06T06:14:47.562Z,8.39
2019-03-06T06:17:19.329Z,8.48
2019-03-06T06:19:50.970Z,8.47
2019-03-06T06:22:50.382Z,8.51
2019-03-06T06:25:22.056Z,8.48
2019-03-06T06:27:53.741Z,8.45
2019-03-06T06:30:25.299Z,8.49
2019-03-06T06:32:56.946Z,8.52
2019-03-06T06:35:28.799Z,8.60
2019-03-06T06:38:00.522Z,8.66
2019-03-06T06:40:32.358Z,8.82
2019-03-06T06:43:04.205Z,8.95
2019-03-06T06:45:37.479Z,8.98
2019-03-06T06:48:20.212Z,9.05
2019-03-06T06:51:01.755Z,9.07
2019-03-06T06:53:38.012Z,9.18
2019-03-06T06:56:55.324Z,9.20
2019-03-06T06:59:38.462Z,9.22
2019-03-06T07:02:48.377Z,9.23
2019-03-06T07:05:50.857Z,9.26
2019-03-06T07:08:54.804Z,9.33
2019-03-06T07:11:43.199Z,9.46
2019-03-06T07:14:32.616Z,9.53
2019-03-06T07:17:26.279Z,9.63
2019-03-06T07:20:07.068Z,9.66
2019-03-06T07:22:57.637Z,9.72
2019-03-06T07:25:44.530Z,9.78
2019-03-06T07:28:33.560Z,9.81
2019-03-06T07:31:22.628Z,9.93
2019-03-06T07:34:11.911Z,9.96
2019-03-06T07:36:53.240Z,9.97
2019-03-06T07:39:26.801Z,10.04
2019-03-06T07:42:17.194Z,10.24
2019-03-06T07:45:41.523Z,10.40
2019-03-06T07:48:32.014Z,10.55
2019-03-06T07:51:10.433Z,10.50
2019-03-06T07:54:11.980Z,10.53
2019-03-06T07:56:55.259Z,10.53
2019-03-06T07:59:27.120Z,10.86
2019-03-06T08:02:02.227Z,10.86
2019-03-06T08:04:34.032Z,11.42
2019-03-06T08:07:16.317Z,11.42
2019-03-06T08:09:48.050Z,11.66
2019-03-06T08:12:47.442Z,11.86
2019-03-06T08:15:56.217Z,12.04
2019-03-06T08:18:41.543Z,12.33
2019-03-06T08:21:44.029Z,12.46
2019-03-06T08:24:40.662Z,12.66
2019-03-06T08:27:12.445Z,12.88
2019-03-06T08:29:44.211Z,13.05
2019-03-06T08:32:23.104Z,13.20
2019-03-06T08:34:54.646Z,13.20
2019-03-06T08:37:26.377Z,13.41
2019-03-06T08:39:59.955Z,13.62
2019-03-06T08:42:32.661Z,13.72
2019-03-06T08:45:07.198Z,13.82
2019-03-06T08:47:51.716Z,13.73
2019-03-06T08:50:42.334Z,13.84
2019-03-06T08:53:32.806Z,13.94
2019-03-06T08:56:19.904Z,13.88
2019-03-06T08:59:09.006Z,13.86
2019-03-06T09:02:15.240Z,13.91
2019-03-06T09:04:58.163Z,13.87
2019-03-06T09:07:49.653Z,13.92
2019-03-06T09:11:02.708Z,14.06
2019-03-06T09:13:49.745Z,14.27
2019-03-06T09:16:46.115Z,14.46
2019-03-06T09:19:30.437Z,14.69
2019-03-06T09:22:19.347Z,15.05
2019-03-06T09:25:15.385Z,15.33
2019-03-06T09:27:53.014Z,15.64
2019-03-06T09:30:47.506Z,15.96
2019-03-06T09:33:46.861Z,16.17
2019-03-06T09:36:37.273Z,16.49
2019-03-06T09:39:29.684Z,16.67
2019-03-06T09:42:22.994Z,16.85
2019-03-06T09:45:22.885Z,17.24
2019-03-06T09:48:08.096Z,17.13
2019-03-06T09:50:58.952Z,17.15
2019-03-06T09:53:50.355Z,17.42
2019-03-06T09:56:31.155Z,17.73
2019-03-06T09:59:34.317Z,17.77
2019-03-06T10:02:23.215Z,17.95
2019-03-06T10:05:13.686Z,17.43
2019-03-06T10:08:02.524Z,17.38
2019-03-06T10:10:50.461Z,17.58
2019-03-06T10:13:42.066Z,17.24
2019-03-06T10:16:19.436Z,17.19
2019-03-06T10:19:08.186Z,17.04
2019-03-06T10:21:40.204Z,17.31
2019-03-06T10:24:11.910Z,16.93
2019-03-06T10:26:43.696Z,17.26
2019-03-06T10:29:15.416Z,17.73
2019-03-06T10:31:47.304Z,18.31
2019-03-06T10:34:19.109Z,18.55
2019-03-06T10:36:50.865Z,18.77
2019-03-06T10:39:22.676Z,18.99
2019-03-06T10:41:54.473Z,19.14
2019-03-06T10:44:29.567Z,19.37
2019-03-06T10:46:59.597Z,19.45
2019-03-06T10:49:31.766Z,19.48
2019-03-06T10:52:03.805Z,19.32
2019-03-06T10:54:44.275Z,18.95
2019-03-06T10:57:11.791Z,19.08
2019-03-06T10:59:43.527Z,18.93
2019-03-06T11:02:17.236Z,19.26
2019-03-06T11:04:53.429Z,19.27
2019-03-06T11:07:25.178Z,19.33
2019-03-06T11:09:57.111Z,19.18
2019-03-06T11:12:29.291Z,19.18
2019-03-06T11:15:02.452Z,19.47
2019-03-06T11:17:34.316Z,19.22
2019-03-06T11:20:07.233Z,18.78
2019-03-06T11:22:40.073Z,18.85
2019-03-06T11:25:12.656Z,19.22
2019-03-06T11:27:44.576Z,19.51
2019-03-06T11:30:24.546Z,19.87
2019-03-06T11:32:56.216Z,19.93
2019-03-06T11:35:28.766Z,19.59
2019-03-06T11:38:00.459Z,19.76
2019-03-06T11:40:32.705Z,19.90
2019-03-06T11:43:04.885Z,19.59
2019-03-06T11:45:39.704Z,19.16
2019-03-06T11:48:11.873Z,18.50
2019-03-06T11:50:43.967Z,18.26
2019-03-06T11:53:15.698Z,18.63
2019-03-06T11:55:47.526Z,19.07
2019-03-06T11:58:20.256Z,19.21
2019-03-06T12:00:52.256Z,19.33
2019-03-06T12:03:26.186Z,19.42
2019-03-06T12:06:00.666Z,19.39
2019-03-06T12:08:32.523Z,18.82
2019-03-06T12:11:04.295Z,18.28
2019-03-06T12:13:36.193Z,17.99
2019-03-06T12:16:07.939Z,17.67
2019-03-06T12:18:41.008Z,17.20
2019-03-06T12:21:12.914Z,17.06
2019-03-06T12:23:44.726Z,16.94
2019-03-06T12:26:16.722Z,16.82
2019-03-06T12:28:48.954Z,16.63
2019-03-06T12:31:21.371Z,16.57
2019-03-06T12:33:53.116Z,16.53
2019-03-06T12:36:24.765Z,16.46
2019-03-06T12:38:56.445Z,16.47
2019-03-06T12:41:28.392Z,16.41
2019-03-06T12:44:00.084Z,16.49
2019-03-06T12:46:32.550Z,16.48
2019-03-06T12:49:06.485Z,16.45
2019-03-06T12:51:39.215Z,16.26
2019-03-06T12:54:11.492Z,16.21
2019-03-06T12:56:44.042Z,16.11
2019-03-06T12:59:16.063Z,15.99
2019-03-06T13:01:47.831Z,15.80
2019-03-06T13:04:20.748Z,15.65
2019-03-06T13:06:52.598Z,15.50
2019-03-06T13:09:24.381Z,15.30
2019-03-06T13:11:55.978Z,15.28
2019-03-06T13:14:30.341Z,15.26
2019-03-06T13:17:01.525Z,15.09
2019-03-06T13:19:33.397Z,15.07
2019-03-06T13:22:11.058Z,14.98
2019-03-06T13:24:43.500Z,15.01
2019-03-06T13:27:15.206Z,14.83
2019-03-06T13:29:47.176Z,14.80
2019-03-06T13:32:20.186Z,14.71
2019-03-06T13:34:56.075Z,14.64
2019-03-06T13:37:29.397Z,14.56
2019-03-06T13:40:03.283Z,14.48
2019-03-06T13:42:35.001Z,14.25
2019-03-06T13:45:09.859Z,13.11
2019-03-06T13:47:42.277Z,12.22
2019-03-06T13:50:14.629Z,10.69
2019-03-06T13:53:25.584Z,10.21
2019-03-06T13:55:58.707Z,10.21
2019-03-06T13:58:30.581Z,9.17
2019-03-06T14:01:02.481Z,9.17
2019-03-06T14:03:34.378Z,9.01
2019-03-06T14:06:06.770Z,8.90
2019-03-06T14:08:38.550Z,8.93
2019-03-06T14:11:10.897Z,8.90
2019-03-06T14:13:42.518Z,9.00
2019-03-06T14:16:14.389Z,9.24
2019-03-06T14:18:46.130Z,9.39
2019-03-06T14:21:17.853Z,9.48
2019-03-06T14:23:49.823Z,9.59
2019-03-06T14:26:21.594Z,9.62
2019-03-06T14:28:53.385Z,9.77
2019-03-06T14:31:25.295Z,9.69
2019-03-06T14:33:57.116Z,9.81
2019-03-06T14:36:29.393Z,9.72
2019-03-06T14:39:01.316Z,9.86
2019-03-06T14:41:34.873Z,9.87
2019-03-06T14:44:06.812Z,10.02
2019-03-06T14:46:39.768Z,10.21
2019-03-06T14:49:11.574Z,10.36
2019-03-06T14:51:43.173Z,10.33
2019-03-06T14:54:14.974Z,10.39
2019-03-06T14:56:46.653Z,10.46
2019-03-06T14:59:18.446Z,10.41
2019-03-06T15:01:50.183Z,10.37
2019-03-06T15:04:21.981Z,10.28
2019-03-06T15:06:53.818Z,10.36
2019-03-06T15:09:27.643Z,10.24
2019-03-06T15:11:59.501Z,10.18
2019-03-06T15:14:36.620Z,10.16
2019-03-06T15:17:06.548Z,10.24
2019-03-06T15:19:39.282Z,10.17
2019-03-06T15:22:11.328Z,10.17
2019-03-06T15:24:43.030Z,10.16
2019-03-06T15:27:15.148Z,10.20
2019-03-06T15:29:46.955Z,10.18
2019-03-06T15:32:18.715Z,10.08
2019-03-06T15:34:50.496Z,10.11
2019-03-06T15:37:22.196Z,9.98
2019-03-06T15:39:53.793Z,9.95
2019-03-06T15:42:26.816Z,9.99
2019-03-06T15:44:58.534Z,9.99
2019-03-06T15:47:33.633Z,9.92
2019-03-06T15:50:04.094Z,9.87
2019-03-06T15:52:36.004Z,9.80
2019-03-06T15:55:08.861Z,9.74
2019-03-06T15:57:40.750Z,9.61
2019-03-06T16:00:19.357Z,9.51
2019-03-06T16:02:51.242Z,9.55
2019-03-06T16:05:23.070Z,9.56
2019-03-06T16:07:56.051Z,9.55
2019-03-06T16:10:28.491Z,9.60
2019-03-06T16:13:01.639Z,9.45
2019-03-06T16:15:33.509Z,9.49
2019-03-06T16:18:06.452Z,9.37
2019-03-06T16:20:39.035Z,9.17
2019-03-06T16:23:10.858Z,9.01
2019-03-06T16:25:42.671Z,8.58
2019-03-06T16:28:14.620Z,8.35
2019-03-06T16:30:49.322Z,8.17
2019-03-06T16:33:21.494Z,8.13
2019-03-06T16:35:53.490Z,8.16
2019-03-06T16:38:25.403Z,8.11
2019-03-06T16:40:57.074Z,8.15
2019-03-06T16:43:28.832Z,8.24
2019-03-06T16:46:02.123Z,8.14
2019-03-06T16:48:34.002Z,7.96
2019-03-06T16:51:05.856Z,7.69
2019-03-06T16:53:37.708Z,7.59
2019-03-06T16:56:09.478Z,7.35
2019-03-06T16:58:41.268Z,7.34
2019-03-06T17:01:12.876Z,7.41
2019-03-06T17:03:44.684Z,7.33
2019-03-06T17:06:16.561Z,7.36
2019-03-06T17:08:48.484Z,7.36
2019-03-06T17:11:20.530Z,7.27
2019-03-06T17:13:52.254Z,7.22
2019-03-06T17:16:24.499Z,7.26
2019-03-06T17:18:57.394Z,7.42
2019-03-06T17:21:29.156Z,7.42
2019-03-06T17:24:01.215Z,7.33
2019-03-06T17:26:32.864Z,7.29
2019-03-06T17:29:15.503Z,7.27
2019-03-06T17:31:47.386Z,7.22
2019-03-06T17:34:21.877Z,7.25
2019-03-06T17:36:53.682Z,7.26
2019-03-06T17:39:25.308Z,7.22
2019-03-06T17:41:57.067Z,7.23
2019-03-06T17:44:29.797Z,7.08
2019-03-06T17:47:01.568Z,7.27
2019-03-06T17:49:34.954Z,7.27
2019-03-06T17:52:07.451Z,7.37
2019-03-06T17:54:39.646Z,7.49
2019-03-06T17:57:11.787Z,7.42
2019-03-06T17:59:43.599Z,7.32
2019-03-06T18:02:15.357Z,7.38
2019-03-06T18:04:47.020Z,7.35
2019-03-06T18:07:18.699Z,7.36
2019-03-06T18:09:52.254Z,7.24
2019-03-06T18:12:24.045Z,7.26
2019-03-06T18:14:57.107Z,7.11
2019-03-06T18:17:31.365Z,7.07
2019-03-06T18:20:03.180Z,7.12
2019-03-06T18:22:35.031Z,7.06
2019-03-06T18:25:10.153Z,6.94
2019-03-06T18:27:41.862Z,6.98
2019-03-06T18:30:15.663Z,6.89
2019-03-06T18:32:47.572Z,6.82
2019-03-06T18:35:19.204Z,6.80
2019-03-06T18:37:50.960Z,6.81
2019-03-06T18:40:22.798Z,6.75
2019-03-06T18:42:55.054Z,6.70
2019-03-06T18:45:27.114Z,6.71
2019-03-06T18:47:58.791Z,6.71
2019-03-06T18:50:30.541Z,6.77
2019-03-06T18:53:02.337Z,6.76
2019-03-06T18:55:34.211Z,6.77
2019-03-06T18:58:06.465Z,6.69
2019-03-06T19:00:41.313Z,6.82
2019-03-06T19:03:13.117Z,6.74
2019-03-06T19:05:44.559Z,6.83
2019-03-06T19:08:16.311Z,6.69
2019-03-06T19:10:47.801Z,6.75
2019-03-06T19:13:19.543Z,6.64
2019-03-06T19:15:51.156Z,6.62
2019-03-06T19:18:23.093Z,6.61
2019-03-06T19:20:54.896Z,6.43
2019-03-06T19:23:29.569Z,6.29
2019-03-06T19:26:01.331Z,6.19
2019-03-06T19:28:33.008Z,6.35
2019-03-06T19:31:04.646Z,6.29
2019-03-06T19:33:36.566Z,6.31
2019-03-06T19:36:08.293Z,6.26
2019-03-06T19:38:40.051Z,6.23
2019-03-06T19:41:14.016Z,6.29
2019-03-06T19:43:45.538Z,6.30
2019-03-06T19:46:17.490Z,6.16
2019-03-06T19:48:49.129Z,6.11
2019-03-06T19:51:20.841Z,6.06
2019-03-06T19:53:53.113Z,6.21
2019-03-06T19:56:24.863Z,6.16
2019-03-06T19:58:57.093Z,6.09
2019-03-06T20:01:28.896Z,6.15
2019-03-06T20:04:00.415Z,6.01
2019-03-06T20:06:35.167Z,5.95
2019-03-06T20:09:27.509Z,6.06
2019-03-06T20:11:59.389Z,6.10
2019-03-06T20:14:31.009Z,6.20
2019-03-06T20:17:02.620Z,6.30
2019-03-06T20:19:34.399Z,6.36
2019-03-06T20:22:06.087Z,6.38
2019-03-06T20:24:37.928Z,6.37
2019-03-06T20:27:09.777Z,6.37
2019-03-06T20:29:43.038Z,6.41
2019-03-06T20:32:15.033Z,6.28
2019-03-06T20:34:48.289Z,6.16
2019-03-06T20:37:22.810Z,5.98
2019-03-06T20:39:54.672Z,6.02
2019-03-06T20:42:26.396Z,5.83
2019-03-06T20:44:58.258Z,5.64
2019-03-06T20:47:30.014Z,5.71
2019-03-06T20:50:01.683Z,5.61
2019-03-06T20:52:34.871Z,5.58
2019-03-06T20:55:07.149Z,5.53
2019-03-06T20:57:40.107Z,5.47
2019-03-06T21:00:15.080Z,5.53
2019-03-06T21:02:48.365Z,5.38
2019-03-06T21:05:21.762Z,5.47
2019-03-06T21:07:54.568Z,5.63
2019-03-06T21:10:29.280Z,5.68
2019-03-06T21:13:01.077Z,5.69
2019-03-06T21:15:32.967Z,5.62
2019-03-06T21:18:04.679Z,5.70
2019-03-06T21:20:36.364Z,5.72
2019-03-06T21:23:11.182Z,5.74
2019-03-06T21:25:42.973Z,5.74
2019-03-06T21:28:14.953Z,5.70
2019-03-06T21:30:46.909Z,5.64
2019-03-06T21:33:18.824Z,5.69
2019-03-06T21:35:50.546Z,5.68
2019-03-06T21:38:22.521Z,5.73
2019-03-06T21:40:54.304Z,5.71
2019-03-06T21:43:26.037Z,5.76
2019-03-06T21:45:57.819Z,5.80
2019-03-06T21:48:29.728Z,5.83
2019-03-06T21:51:01.584Z,5.86
2019-03-06T21:53:33.523Z,5.85
2019-03-06T21:56:05.449Z,5.86
2019-03-06T21:58:37.301Z,5.88
2019-03-06T22:01:08.970Z,5.85
2019-03-06T22:03:40.866Z,5.84
2019-03-06T22:06:12.464Z,5.84
2019-03-06T22:08:44.124Z,5.81
2019-03-06T22:11:15.893Z,5.82
2019-03-06T22:13:47.592Z,5.81
2019-03-06T22:16:19.265Z,5.79
2019-03-06T22:18:50.797Z,5.79
2019-03-06T22:21:22.365Z,5.84
2019-03-06T22:23:57.888Z,5.76
2019-03-06T22:26:28.603Z,5.78
2019-03-06T22:29:00.407Z,5.75
2019-03-06T22:31:34.763Z,5.71
2019-03-06T22:34:06.702Z,5.72
2019-03-06T22:36:41.023Z,5.67
2019-03-06T22:39:13.355Z,5.63
2019-03-06T22:41:47.725Z,5.60
2019-03-06T22:44:19.378Z,5.60
2019-03-06T22:46:51.000Z,5.60
2019-03-06T22:49:22.818Z,5.57
2019-03-06T22:51:54.518Z,5.56
2019-03-06T22:54:26.129Z,5.62
2019-03-06T22:56:58.889Z,5.52
2019-03-06T22:59:30.924Z,5.35
2019-03-06T23:02:02.931Z,5.29
2019-03-06T23:04:36.688Z,5.29
2019-03-06T23:07:08.989Z,5.27
2019-03-06T23:09:42.408Z,5.23
2019-03-06T23:12:14.259Z,5.18
2019-03-06T23:14:46.112Z,5.11
2019-03-06T23:17:17.838Z,5.16
2019-03-06T23:19:49.504Z,5.02
2019-03-06T23:22:22.198Z,5.05
2019-03-06T23:24:54.181Z,4.98
2019-03-06T23:27:26.024Z,4.79
2019-03-06T23:29:57.812Z,4.79
2019-03-06T23:32:33.520Z,4.76
2019-03-06T23:35:06.615Z,4.77
2019-03-06T23:37:38.172Z,4.77
2019-03-06T23:40:10.202Z,4.83
2019-03-06T23:42:41.983Z,4.87
2019-03-06T23:45:14.984Z,4.86
2019-03-06T23:47:47.002Z,4.92
2019-03-06T23:50:18.713Z,4.94
2019-03-06T23:53:06.950Z,4.91
2019-03-06T23:55:38.712Z,4.96
2019-03-06T23:58:10.514Z,4.79
